createdAt,value
2019-04-23T00:00:54.795Z,7.97
2019-04-23T00:03:18.727Z,8.03
2019-04-23T00:05:55.897Z,12.33
2019-04-23T00:08:26.706Z,12.63
2019-04-23T00:10:59.064Z,10.53
2019-04-23T00:13:29.836Z,8.77
2019-04-23T00:21:13.760Z,11.20
2019-04-23T00:23:44.860Z,9.40
2019-04-23T00:26:12.847Z,8.97
2019-04-23T00:28:42.273Z,10.13
2019-04-23T00:33:56.868Z,11.97
2019-04-23T00:36:17.417Z,9.63
2019-04-23T00:41:09.313Z,9.90
2019-04-23T00:43:42.923Z,9.90
2019-04-23T00:46:18.953Z,12.07
2019-04-23T00:51:19.033Z,13.97
2019-04-23T00:53:36.982Z,11.23
2019-04-23T00:56:32.476Z,9.90
2019-04-23T01:01:12.960Z,10.73
2019-04-23T01:03:42.513Z,12.47
2019-04-23T01:06:17.659Z,9.03
2019-04-23T01:08:44.154Z,12.20
2019-04-23T01:11:20.730Z,10.43
2019-04-23T01:16:29.884Z,11.23
2019-04-23T01:18:51.528Z,10.07
2019-04-23T01:21:07.593Z,10.93
2019-04-23T01:23:54.446Z,9.23
2019-04-23T01:26:40.452Z,12.97
2019-04-23T01:29:12.828Z,10.57
2019-04-23T01:31:47.793Z,10.87
2019-04-23T01:34:20.191Z,10.03
2019-04-23T01:36:40.225Z,9.47
2019-04-23T01:41:50.677Z,9.70
2019-04-23T01:44:27.834Z,12.93
2019-04-23T01:46:49.423Z,10.93
2019-04-23T01:49:20.732Z,11.60
2019-04-23T01:51:55.650Z,12.57
2019-04-23T01:54:19.163Z,13.93
2019-04-23T01:56:38.560Z,10.17
2019-04-23T01:59:18.298Z,11.60
2019-04-23T02:04:25.017Z,11.00
2019-04-23T02:06:45.460Z,9.37
2019-04-23T02:09:16.709Z,10.20
2019-04-23T02:11:53.602Z,14.63
2019-04-23T02:14:26.739Z,10.10
2019-04-23T02:16:50.338Z,11.40
2019-04-23T02:19:23.719Z,15.90
2019-04-23T02:22:01.169Z,13.10
2019-04-23T02:24:37.045Z,12.03
2019-04-23T02:27:07.347Z,12.10
2019-04-23T02:29:43.624Z,10.20
2019-04-23T02:32:10.945Z,10.93
2019-04-23T02:37:28.578Z,26.27
2019-04-23T02:42:34.450Z,12.07
2019-04-23T02:44:38.626Z,15.30
2019-04-23T02:52:18.306Z,10.33
2019-04-23T02:54:50.998Z,15.53
2019-04-23T02:57:13.451Z,13.33
2019-04-23T03:00:05.765Z,13.43
2019-04-23T03:04:50.638Z,11.30
2019-04-23T03:12:24.943Z,11.63
2019-04-23T03:14:48.924Z,15.07
2019-04-23T03:17:36.540Z,11.90
2019-04-23T03:20:15.559Z,11.70
2019-04-23T03:22:56.106Z,12.83
2019-04-23T03:25:33.911Z,14.77
2019-04-23T03:27:46.048Z,15.87
2019-04-23T03:30:53.094Z,15.43
2019-04-23T03:35:10.593Z,12.93
2019-04-23T03:37:55.743Z,15.43
2019-04-23T03:40:18.799Z,15.07
2019-04-23T03:43:01.965Z,15.90
2019-04-23T03:45:44.419Z,14.53
2019-04-23T03:48:03.075Z,14.40
2019-04-23T03:50:28.262Z,13.37
2019-04-23T03:52:54.813Z,12.73
2019-04-23T03:55:48.031Z,16.67
2019-04-23T03:57:53.477Z,17.87
2019-04-23T04:00:35.180Z,18.43
2019-04-23T04:03:14.803Z,15.60
2019-04-23T04:05:47.269Z,16.80
2019-04-23T04:08:07.248Z,17.00
2019-04-23T04:10:33.972Z,15.23
2019-04-23T04:13:00.146Z,14.93
2019-04-23T04:18:14.026Z,16.47
2019-04-23T04:20:35.722Z,16.83
2019-04-23T04:23:07.793Z,17.73
2019-04-23T04:28:35.911Z,14.70
2019-04-23T04:35:57.867Z,17.10
2019-04-23T04:38:42.011Z,19.30
2019-04-23T04:41:05.518Z,16.10
2019-04-23T04:46:04.985Z,14.37
2019-04-23T04:48:29.792Z,15.30
2019-04-23T04:51:00.450Z,14.63
2019-04-23T04:58:21.170Z,19.87
2019-04-23T05:03:25.046Z,18.67
2019-04-23T05:08:28.745Z,15.17
2019-04-23T05:11:02.144Z,16.70
2019-04-23T05:16:04.351Z,16.97
2019-04-23T05:18:34.626Z,17.27
2019-04-23T05:23:43.002Z,16.17
2019-04-23T05:26:15.565Z,14.07
2019-04-23T05:28:49.106Z,17.17
2019-04-23T05:31:14.236Z,14.73
2019-04-23T05:33:48.526Z,17.70
2019-04-23T05:41:34.816Z,11.67
2019-04-23T05:43:49.208Z,13.80
2019-04-23T05:48:53.193Z,13.53
2019-04-23T05:51:24.270Z,18.43
2019-04-23T05:56:21.293Z,12.23
2019-04-23T05:58:53.043Z,21.87
2019-04-23T06:01:44.552Z,14.20
2019-04-23T06:04:03.950Z,15.50
2019-04-23T06:06:29.755Z,16.07
2019-04-23T06:11:30.820Z,16.73
2019-04-23T06:14:02.077Z,13.00
2019-04-23T06:16:31.539Z,16.40
2019-04-23T06:19:02.766Z,14.30
2019-04-23T06:23:58.286Z,13.67
2019-04-23T06:28:58.811Z,15.80
2019-04-23T06:31:36.690Z,15.03
2019-04-23T06:33:54.320Z,17.47
2019-04-23T06:38:57.548Z,17.67
2019-04-23T06:41:31.256Z,14.70
2019-04-23T06:44:06.050Z,19.10
2019-04-23T06:46:39.511Z,13.27
2019-04-23T06:49:02.408Z,13.90
2019-04-23T06:51:37.719Z,14.37
2019-04-23T06:53:58.277Z,16.97
2019-04-23T06:56:33.504Z,19.17
2019-04-23T06:59:00.835Z,15.80
2019-04-23T07:01:30.185Z,15.23
2019-04-23T07:04:05.582Z,14.87
2019-04-23T07:06:38.525Z,12.73
2019-04-23T07:11:37.776Z,15.40
2019-04-23T07:14:26.137Z,12.60
2019-04-23T07:16:38.568Z,11.93
2019-04-23T07:19:11.091Z,12.97
2019-04-23T07:21:36.728Z,14.17
2019-04-23T07:24:08.509Z,12.43
2019-04-23T07:26:39.738Z,10.83
2019-04-23T07:29:07.264Z,13.67
2019-04-23T07:31:40.953Z,12.03
2019-04-23T07:34:06.941Z,12.73
2019-04-23T07:39:35.250Z,13.87
2019-04-23T07:42:11.450Z,11.43
2019-04-23T07:47:18.990Z,14.00
2019-04-23T07:52:13.296Z,14.07
2019-04-23T07:54:38.779Z,11.17
2019-04-23T07:57:12.232Z,15.97
2019-04-23T07:59:43.146Z,16.27
2019-04-23T08:02:05.590Z,13.07
2019-04-23T08:04:50.692Z,11.70
2019-04-23T08:07:12.841Z,17.90
2019-04-23T08:09:43.358Z,22.27
2019-04-23T08:12:08.297Z,9.17
2019-04-23T08:14:43.920Z,12.40
2019-04-23T08:17:04.296Z,16.77
2019-04-23T08:19:40.974Z,13.67
2019-04-23T08:24:45.429Z,10.27
2019-04-23T08:27:27.896Z,11.13
2019-04-23T08:29:55.807Z,8.83
2019-04-23T08:32:21.529Z,11.23
2019-04-23T08:35:03.069Z,16.07
2019-04-23T08:37:49.397Z,11.53
2019-04-23T08:40:01.511Z,14.80
2019-04-23T08:42:45.644Z,11.60
2019-04-23T08:48:22.986Z,10.53
2019-04-23T08:56:00.402Z,15.23
2019-04-23T08:58:23.795Z,12.07
2019-04-23T09:03:31.286Z,7.77
2019-04-23T09:10:50.121Z,12.97
2019-04-23T09:13:45.154Z,17.17
2019-04-23T09:15:50.993Z,8.60
2019-04-23T09:20:44.539Z,17.73
2019-04-23T09:23:23.890Z,12.97
2019-04-23T09:25:56.193Z,12.77
2019-04-23T09:28:31.135Z,15.53
2019-04-23T09:30:57.407Z,13.27
2019-04-23T09:36:06.443Z,11.33
2019-04-23T09:38:44.970Z,9.30
2019-04-23T09:43:53.929Z,15.60
2019-04-23T09:46:28.940Z,14.47
2019-04-23T09:49:09.320Z,19.70
2019-04-23T09:51:29.984Z,13.47
2019-04-23T09:54:02.901Z,11.60
2019-04-23T09:56:35.851Z,10.93
2019-04-23T09:59:09.008Z,11.60
2019-04-23T10:03:50.776Z,12.87
2019-04-23T10:06:14.502Z,17.23
2019-04-23T10:08:44.933Z,9.13
2019-04-23T10:11:09.446Z,20.07
2019-04-23T10:13:38.570Z,6.73
2019-04-23T10:16:10.295Z,11.70
2019-04-23T10:18:37.486Z,8.10
2019-04-23T10:21:07.610Z,14.27
2019-04-23T10:23:37.019Z,14.20
2019-04-23T10:26:06.228Z,12.13
2019-04-23T10:28:40.216Z,8.80
2019-04-23T10:31:09.092Z,9.53
2019-04-23T10:33:38.078Z,13.83
2019-04-23T10:36:10.980Z,13.20
2019-04-23T10:38:44.113Z,10.77
2019-04-23T10:41:07.159Z,12.03
2019-04-23T10:43:39.481Z,9.00
2019-04-23T10:46:27.213Z,5.40
2019-04-23T10:52:01.240Z,13.13
2019-04-23T10:54:35.844Z,8.20
2019-04-23T10:56:59.056Z,11.93
2019-04-23T11:07:28.441Z,10.03
2019-04-23T11:14:49.951Z,10.17
2019-04-23T11:17:27.027Z,12.47
2019-04-23T11:22:38.971Z,8.77
2019-04-23T11:24:49.634Z,9.73
2019-04-23T11:27:22.566Z,12.53
2019-04-23T11:29:50.519Z,8.03
2019-04-23T11:32:42.873Z,11.00
2019-04-23T11:37:37.981Z,10.87
2019-04-23T11:39:57.992Z,7.30
2019-04-23T11:44:56.545Z,13.67
2019-04-23T11:47:46.969Z,13.27
2019-04-23T11:49:58.174Z,7.80
2019-04-23T12:02:38.578Z,13.90
2019-04-23T12:07:50.885Z,9.93
2019-04-23T12:12:53.925Z,8.77
2019-04-23T12:17:59.083Z,13.27
2019-04-23T12:23:18.981Z,13.77
2019-04-23T12:25:36.714Z,13.07
2019-04-23T12:28:06.724Z,14.60
2019-04-23T12:30:39.490Z,13.27
2019-04-23T12:33:31.744Z,6.87
2019-04-23T12:35:47.171Z,13.63
2019-04-23T12:40:43.155Z,9.67
2019-04-23T12:45:37.452Z,8.37
2019-04-23T12:48:15.604Z,10.10
2019-04-23T12:50:50.014Z,9.87
2019-04-23T12:53:23.712Z,12.30
2019-04-23T12:58:17.874Z,8.93
2019-04-23T13:00:42.688Z,11.13
2019-04-23T13:03:18.957Z,10.83
2019-04-23T13:05:56.854Z,9.20
2019-04-23T13:10:45.284Z,11.90
2019-04-23T13:13:23.993Z,8.40
2019-04-23T13:16:03.001Z,11.23
2019-04-23T13:18:19.279Z,10.40
2019-04-23T13:25:59.650Z,8.50
2019-04-23T13:38:56.653Z,13.93
2019-04-23T13:41:21.649Z,15.10
2019-04-23T13:48:30.094Z,15.10
2019-04-23T13:51:19.811Z,11.97
2019-04-23T13:56:11.155Z,10.20
2019-04-23T13:58:50.393Z,12.70
2019-04-23T14:03:50.104Z,10.40
2019-04-23T14:08:53.575Z,9.00
2019-04-23T14:11:19.759Z,14.67
2019-04-23T14:13:52.053Z,12.30
2019-04-23T14:16:23.086Z,13.47
2019-04-23T14:21:20.418Z,13.77
2019-04-23T14:26:32.608Z,15.50
2019-04-23T14:28:44.910Z,15.40
2019-04-23T14:31:11.505Z,20.47
2019-04-23T14:36:17.802Z,18.13
2019-04-23T14:38:43.820Z,16.10
2019-04-23T14:44:03.693Z,11.73
2019-04-23T14:48:53.855Z,14.43
2019-04-23T14:51:23.665Z,11.53
2019-04-23T14:53:43.959Z,19.93
2019-04-23T14:56:17.019Z,17.73
2019-04-23T14:58:57.590Z,16.77
2019-04-23T15:03:46.851Z,13.20
2019-04-23T15:06:37.852Z,12.93
2019-04-23T15:13:52.060Z,19.00
2019-04-23T15:16:22.723Z,21.47
2019-04-23T15:19:12.989Z,18.83
2019-04-23T15:24:23.306Z,10.63
2019-04-23T15:27:22.646Z,15.13
2019-04-23T15:28:44.871Z,12.77
2019-04-23T15:31:44.731Z,18.20
2019-04-23T15:41:40.480Z,11.30
2019-04-23T15:44:08.692Z,12.73
2019-04-23T15:49:23.098Z,22.73
2019-04-23T15:54:14.382Z,19.43
2019-04-23T15:56:42.743Z,13.63
2019-04-23T15:59:25.338Z,14.40
2019-04-23T16:01:37.675Z,17.30
2019-04-23T16:03:41.838Z,11.23
2019-04-23T16:06:11.431Z,14.30
2019-04-23T16:11:47.024Z,14.27
2019-04-23T16:16:58.288Z,33.53
2019-04-23T16:19:17.672Z,14.60
2019-04-23T16:22:01.942Z,15.67
2019-04-23T16:24:18.223Z,16.93
2019-04-23T16:26:50.875Z,16.23
2019-04-23T16:29:38.040Z,14.93
2019-04-23T16:31:49.451Z,12.93
2019-04-23T16:34:25.648Z,22.60
2019-04-23T16:36:55.855Z,9.43
2019-04-23T16:39:16.564Z,17.62
2019-04-23T16:46:55.913Z,19.03
2019-04-23T16:51:47.873Z,19.53
2019-04-23T16:54:26.753Z,13.37
2019-04-23T16:57:17.918Z,18.53
2019-04-23T16:59:24.695Z,19.47
2019-04-23T17:02:03.475Z,19.43
2019-04-23T17:04:24.491Z,17.20
2019-04-23T17:06:57.792Z,16.87
2019-04-23T17:09:34.098Z,21.00
2019-04-23T17:12:05.386Z,20.87
2019-04-23T17:16:49.920Z,22.93
2019-04-23T17:21:59.923Z,16.87
2019-04-23T17:27:03.657Z,17.30
2019-04-23T17:29:28.222Z,21.20
2019-04-23T17:32:06.021Z,18.80
2019-04-23T17:34:47.894Z,24.67
2019-04-23T17:37:21.760Z,16.13
2019-04-23T17:40:08.612Z,23.40
2019-04-23T17:42:32.491Z,24.73
2019-04-23T17:45:30.467Z,29.70
2019-04-23T17:47:52.403Z,28.73
2019-04-23T17:52:52.515Z,29.83
2019-04-23T17:55:15.039Z,24.03
2019-04-23T17:57:55.524Z,27.07
2019-04-23T18:00:32.918Z,23.20
2019-04-23T18:03:41.943Z,30.57
2019-04-23T18:05:35.791Z,23.33
2019-04-23T18:12:53.789Z,23.93
2019-04-23T18:15:15.590Z,20.77
2019-04-23T18:20:23.127Z,27.13
2019-04-23T18:27:54.555Z,25.40
2019-04-23T18:30:50.996Z,22.73
2019-04-23T18:33:49.073Z,25.97
2019-04-23T18:35:42.702Z,25.40
2019-04-23T18:38:25.361Z,25.60
2019-04-23T18:43:26.941Z,18.80
2019-04-23T18:45:55.649Z,16.30
2019-04-23T18:51:07.850Z,16.57
2019-04-23T18:53:40.770Z,16.57
2019-04-23T18:56:06.918Z,24.63
2019-04-23T18:58:47.227Z,17.47
2019-04-23T19:12:04.997Z,17.97
2019-04-23T19:14:42.432Z,29.67
2019-04-23T19:17:33.524Z,24.47
2019-04-23T19:19:36.791Z,23.60
2019-04-23T19:24:31.533Z,12.13
2019-04-23T19:29:39.651Z,19.80
2019-04-23T19:32:08.886Z,15.10
2019-04-23T19:42:03.810Z,16.87
2019-04-23T19:44:38.761Z,13.27
2019-04-23T19:47:09.613Z,24.43
2019-04-23T19:49:36.975Z,17.00
2019-04-23T19:52:03.046Z,13.77
2019-04-23T19:54:48.412Z,19.63
2019-04-23T20:12:05.856Z,14.80
2019-04-23T20:14:48.904Z,16.00
2019-04-23T20:17:32.048Z,15.50
2019-04-23T20:22:21.106Z,13.93
2019-04-23T20:25:10.773Z,22.53
2019-04-23T20:27:18.021Z,16.43
2019-04-23T20:33:18.881Z,16.57
2019-04-23T20:38:17.257Z,13.57
2019-04-23T20:40:25.749Z,13.40
2019-04-23T20:42:52.598Z,16.63
2019-04-23T20:45:20.114Z,16.10
2019-04-23T20:47:57.407Z,17.10
2019-04-23T20:50:16.492Z,19.03
2019-04-23T20:53:03.370Z,15.27
2019-04-23T20:55:29.354Z,24.00
2019-04-23T20:58:09.542Z,18.80
2019-04-23T21:00:57.015Z,14.17
2019-04-23T21:03:30.563Z,16.47
2019-04-23T21:05:41.315Z,19.20
2019-04-23T21:08:14.208Z,17.27
2019-04-23T21:10:55.522Z,18.03
2019-04-23T21:13:27.529Z,17.57
2019-04-23T21:15:52.520Z,21.20
2019-04-23T21:18:22.040Z,17.57
2019-04-23T21:25:51.033Z,18.77
2019-04-23T21:31:06.808Z,22.37
2019-04-23T21:33:24.402Z,15.63
2019-04-23T21:36:10.742Z,18.73
2019-04-23T21:38:58.577Z,19.97
2019-04-23T21:41:17.521Z,18.87
2019-04-23T21:44:05.988Z,16.10
2019-04-23T21:46:24.075Z,18.63
2019-04-23T21:49:01.734Z,17.27
2019-04-23T21:51:28.610Z,18.33
2019-04-23T21:53:46.036Z,25.67
2019-04-23T21:56:15.423Z,19.07
2019-04-23T21:58:54.856Z,20.30
2019-04-23T22:01:27.883Z,21.30
2019-04-23T22:04:52.714Z,21.07
2019-04-23T22:06:30.603Z,26.77
2019-04-23T22:08:58.920Z,25.07
2019-04-23T22:11:42.635Z,20.67
2019-04-23T22:16:23.839Z,18.90
2019-04-23T22:19:07.226Z,19.17
2019-04-23T22:26:28.563Z,24.90
2019-04-23T22:29:07.273Z,17.73
2019-04-23T22:31:29.196Z,35.17
2019-04-23T22:34:02.669Z,31.30
2019-04-23T22:36:23.577Z,22.53
2019-04-23T22:39:00.335Z,19.20
2019-04-23T22:41:26.314Z,23.13
2019-04-23T22:49:07.945Z,26.07
2019-04-23T22:51:29.054Z,19.33
2019-04-23T22:54:03.725Z,26.80
2019-04-23T22:56:25.630Z,25.00
2019-04-23T22:59:09.657Z,27.93
2019-04-23T23:01:42.664Z,27.93
2019-04-23T23:04:04.541Z,20.83
2019-04-23T23:06:44.533Z,21.20
2019-04-23T23:11:35.764Z,29.53
2019-04-23T23:16:28.478Z,22.77
2019-04-23T23:19:05.098Z,23.40
2019-04-23T23:21:43.213Z,21.77
2019-04-23T23:29:03.998Z,22.43
2019-04-23T23:31:38.450Z,23.17
2019-04-23T23:36:40.047Z,27.60
2019-04-23T23:41:46.661Z,22.93
2019-04-23T23:44:28.078Z,28.90
2019-04-23T23:49:15.543Z,21.17
2019-04-23T23:51:40.592Z,26.83
2019-04-23T23:54:08.521Z,25.07
2019-04-23T23:56:58.779Z,25.23
2019-04-23T23:59:12.583Z,23.07
